sensor_id;sensor_type;location;lat;lon;timestamp;pressure;altitude;pressure_sealevel;temperature;humidity
71966;BME280;59836;52.132;5.442;2022-08-18T00:04:42;101336.31;;;19.05;86.36
71966;BME280;59836;52.132;5.442;2022-08-18T00:07:21;101338.28;;;19.05;86.34
71966;BME280;59836;52.132;5.442;2022-08-18T00:09:48;101345.19;;;19.02;86.42
71966;BME280;59836;52.132;5.442;2022-08-18T00:12:39;101341.66;;;19.01;86.38
71966;BME280;59836;52.132;5.442;2022-08-18T00:15:11;101338.09;;;19.01;86.52
71966;BME280;59836;52.132;5.442;2022-08-18T00:17:46;101344.41;;;19.01;86.58
71966;BME280;59836;52.132;5.442;2022-08-18T00:20:17;101346.34;;;19.01;86.39
71966;BME280;59836;52.132;5.442;2022-08-18T00:22:44;101349.06;;;19.01;86.61
71966;BME280;59836;52.132;5.442;2022-08-18T00:25:21;101345.53;;;19.00;86.64
71966;BME280;59836;52.132;5.442;2022-08-18T00:27:49;101347.66;;;19.03;86.55
71966;BME280;59836;52.132;5.442;2022-08-18T00:30:18;101350.41;;;19.03;86.24
71966;BME280;59836;52.132;5.442;2022-08-18T00:32:52;101355.06;;;19.03;86.19
71966;BME280;59836;52.132;5.442;2022-08-18T00:38:04;101352.97;;;19.00;86.15
71966;BME280;59836;52.132;5.442;2022-08-18T00:40:39;101342.06;;;18.95;86.25
71966;BME280;59836;52.132;5.442;2022-08-18T00:43:18;101336.88;;;18.93;86.42
71966;BME280;59836;52.132;5.442;2022-08-18T00:45:57;101333.31;;;18.93;86.18
71966;BME280;59836;52.132;5.442;2022-08-18T00:48:26;101338.03;;;18.92;86.29
71966;BME280;59836;52.132;5.442;2022-08-18T00:50:57;101338.81;;;18.93;86.45
71966;BME280;59836;52.132;5.442;2022-08-18T00:53:30;101335.16;;;18.97;86.48
71966;BME280;59836;52.132;5.442;2022-08-18T00:56:05;101334.03;;;18.98;86.36
71966;BME280;59836;52.132;5.442;2022-08-18T00:58:55;101342.47;;;19.02;86.10
71966;BME280;59836;52.132;5.442;2022-08-18T01:01:25;101343.59;;;19.01;86.54
71966;BME280;59836;52.132;5.442;2022-08-18T01:04:06;101348.09;;;18.97;86.60
71966;BME280;59836;52.132;5.442;2022-08-18T01:06:44;101357.56;;;18.91;87.04
71966;BME280;59836;52.132;5.442;2022-08-18T01:09:18;101361.44;;;18.89;87.15
71966;BME280;59836;52.132;5.442;2022-08-18T01:11:45;101367.25;;;18.88;87.47
71966;BME280;59836;52.132;5.442;2022-08-18T01:14:13;101364.50;;;18.88;87.38
71966;BME280;59836;52.132;5.442;2022-08-18T01:16:44;101365.81;;;18.91;87.44
71966;BME280;59836;52.132;5.442;2022-08-18T01:19:38;101372.63;;;18.93;87.30
71966;BME280;59836;52.132;5.442;2022-08-18T01:22:56;101370.38;;;18.95;87.27
71966;BME280;59836;52.132;5.442;2022-08-18T01:25:31;101374.25;;;18.94;87.30
71966;BME280;59836;52.132;5.442;2022-08-18T01:28:18;101370.38;;;18.95;87.18
71966;BME280;59836;52.132;5.442;2022-08-18T01:30:49;101366.53;;;18.96;87.20
71966;BME280;59836;52.132;5.442;2022-08-18T01:33:17;101366.31;;;18.93;86.94
71966;BME280;59836;52.132;5.442;2022-08-18T01:35:47;101369.38;;;18.91;87.10
71966;BME280;59836;52.132;5.442;2022-08-18T01:38:21;101365.31;;;18.88;87.16
71966;BME280;59836;52.132;5.442;2022-08-18T01:40:48;101365.31;;;18.88;86.86
71966;BME280;59836;52.132;5.442;2022-08-18T01:43:43;101368.38;;;18.87;87.18
71966;BME280;59836;52.132;5.442;2022-08-18T01:46:27;101369.19;;;18.87;87.05
71966;BME280;59836;52.132;5.442;2022-08-18T01:48:58;101372.44;;;18.89;87.34
71966;BME280;59836;52.132;5.442;2022-08-18T01:51:29;101371.00;;;18.92;87.16
71966;BME280;59836;52.132;5.442;2022-08-18T01:54:09;101371.31;;;18.91;87.47
71966;BME280;59836;52.132;5.442;2022-08-18T01:56:50;101366.44;;;18.87;87.41
71966;BME280;59836;52.132;5.442;2022-08-18T01:59:33;101373.06;;;18.86;87.63
71966;BME280;59836;52.132;5.442;2022-08-18T02:02:00;101381.00;;;18.88;87.80
71966;BME280;59836;52.132;5.442;2022-08-18T02:04:29;101388.13;;;18.89;87.53
71966;BME280;59836;52.132;5.442;2022-08-18T02:07:07;101379.53;;;18.91;87.44
71966;BME280;59836;52.132;5.442;2022-08-18T02:09:37;101371.44;;;18.85;87.42
71966;BME280;59836;52.132;5.442;2022-08-18T02:12:06;101366.94;;;18.89;87.50
71966;BME280;59836;52.132;5.442;2022-08-18T02:14:33;101366.94;;;18.89;87.28
71966;BME280;59836;52.132;5.442;2022-08-18T02:17:06;101371.94;;;18.87;87.25
71966;BME280;59836;52.132;5.442;2022-08-18T02:19:50;101370.81;;;18.88;87.06
71966;BME280;59836;52.132;5.442;2022-08-18T02:22:19;101368.38;;;18.87;86.97
71966;BME280;59836;52.132;5.442;2022-08-18T02:24:48;101371.44;;;18.85;87.04
71966;BME280;59836;52.132;5.442;2022-08-18T02:27:17;101367.06;;;18.84;86.72
71966;BME280;59836;52.132;5.442;2022-08-18T02:29:55;101351.69;;;18.83;86.39
71966;BME280;59836;52.132;5.442;2022-08-18T02:32:30;101357.00;;;18.80;86.08
71966;BME280;59836;52.132;5.442;2022-08-18T02:35:04;101348.91;;;18.74;86.28
71966;BME280;59836;52.132;5.442;2022-08-18T02:37:44;101358.06;;;18.70;86.34
71966;BME280;59836;52.132;5.442;2022-08-18T02:40:14;101358.69;;;18.67;86.20
71966;BME280;59836;52.132;5.442;2022-08-18T02:42:43;101361.25;;;18.63;86.36
71966;BME280;59836;52.132;5.442;2022-08-18T02:45:13;101366.25;;;18.61;86.23
71966;BME280;59836;52.132;5.442;2022-08-18T02:47:53;101369.91;;;18.56;86.58
71966;BME280;59836;52.132;5.442;2022-08-18T02:50:38;101371.53;;;18.57;86.25
71966;BME280;59836;52.132;5.442;2022-08-18T02:53:21;101380.44;;;18.54;86.08
71966;BME280;59836;52.132;5.442;2022-08-18T02:55:48;101383.19;;;18.54;86.16
71966;BME280;59836;52.132;5.442;2022-08-18T02:58:19;101383.19;;;18.54;86.19
71966;BME280;59836;52.132;5.442;2022-08-18T03:00:46;101390.28;;;18.55;86.14
71966;BME280;59836;52.132;5.442;2022-08-18T03:03:21;101379.94;;;18.52;86.12
71966;BME280;59836;52.132;5.442;2022-08-18T03:05:48;101379.59;;;18.54;85.89
71966;BME280;59836;52.132;5.442;2022-08-18T03:08:14;101376.88;;;18.54;85.97
71966;BME280;59836;52.132;5.442;2022-08-18T03:10:41;101373.63;;;18.52;86.24
71966;BME280;59836;52.132;5.442;2022-08-18T03:13:34;101383.41;;;18.44;86.47
71966;BME280;59836;52.132;5.442;2022-08-18T03:16:01;101390.53;;;18.45;86.67
71966;BME280;59836;52.132;5.442;2022-08-18T03:18:29;101394.41;;;18.44;86.66
71966;BME280;59836;52.132;5.442;2022-08-18T03:21:12;101390.31;;;18.41;86.83
71966;BME280;59836;52.132;5.442;2022-08-18T03:23:42;101389.53;;;18.41;86.59
71966;BME280;59836;52.132;5.442;2022-08-18T03:26:25;101381.09;;;18.37;86.46
71966;BME280;59836;52.132;5.442;2022-08-18T03:28:53;101389.53;;;18.41;86.12
71966;BME280;59836;52.132;5.442;2022-08-18T03:31:24;101387.91;;;18.40;86.11
71966;BME280;59836;52.132;5.442;2022-08-18T03:33:57;101384.84;;;18.41;85.88
71966;BME280;59836;52.132;5.442;2022-08-18T03:36:32;101379.34;;;18.41;85.59
71966;BME280;59836;52.132;5.442;2022-08-18T03:39:05;101387.41;;;18.38;85.71
71966;BME280;59836;52.132;5.442;2022-08-18T03:41:37;101389.16;;;18.34;85.92
71966;BME280;59836;52.132;5.442;2022-08-18T03:44:36;101393.00;;;18.33;85.68
71966;BME280;59836;52.132;5.442;2022-08-18T03:47:16;101385.91;;;18.32;85.67
71966;BME280;59836;52.132;5.442;2022-08-18T03:49:43;101393.00;;;18.33;85.84
71966;BME280;59836;52.132;5.442;2022-08-18T03:52:11;101386.91;;;18.36;85.66
71966;BME280;59836;52.132;5.442;2022-08-18T03:54:39;101382.03;;;18.33;85.59
71966;BME280;59836;52.132;5.442;2022-08-18T03:57:16;101387.63;;;18.27;85.76
71966;BME280;59836;52.132;5.442;2022-08-18T03:59:43;101392.63;;;18.25;85.57
71966;BME280;59836;52.132;5.442;2022-08-18T04:02:10;101387.25;;;18.20;85.57
71966;BME280;59836;52.132;5.442;2022-08-18T04:04:42;101392.84;;;18.15;85.96
71966;BME280;59836;52.132;5.442;2022-08-18T04:07:11;101389.59;;;18.13;85.46
71966;BME280;59836;52.132;5.442;2022-08-18T04:09:42;101389.59;;;18.13;85.39
71966;BME280;59836;52.132;5.442;2022-08-18T04:12:13;101398.44;;;18.10;85.56
71966;BME280;59836;52.132;5.442;2022-08-18T04:14:44;101391.31;;;18.09;85.84
71966;BME280;59836;52.132;5.442;2022-08-18T04:17:13;101394.06;;;18.09;85.90
71966;BME280;59836;52.132;5.442;2022-08-18T04:19:43;101390.81;;;18.07;85.94
71966;BME280;59836;52.132;5.442;2022-08-18T04:22:10;101385.84;;;18.09;85.46
71966;BME280;59836;52.132;5.442;2022-08-18T04:24:48;101395.69;;;18.10;85.68
71966;BME280;59836;52.132;5.442;2022-08-18T04:27:19;101391.81;;;18.11;85.70
71966;BME280;59836;52.132;5.442;2022-08-18T04:29:46;101395.69;;;18.10;85.34
71966;BME280;59836;52.132;5.442;2022-08-18T04:32:13;101400.34;;;18.09;85.47
71966;BME280;59836;52.132;5.442;2022-08-18T04:34:39;101405.84;;;18.09;85.29
71966;BME280;59836;52.132;5.442;2022-08-18T04:37:13;101391.63;;;18.07;85.61
71966;BME280;59836;52.132;5.442;2022-08-18T04:39:47;101396.81;;;18.09;85.62
71966;BME280;59836;52.132;5.442;2022-08-18T04:42:14;101392.94;;;18.10;85.30
71966;BME280;59836;52.132;5.442;2022-08-18T04:44:50;101392.13;;;18.09;85.62
71966;BME280;59836;52.132;5.442;2022-08-18T04:47:27;101391.31;;;18.09;85.86
71966;BME280;59836;52.132;5.442;2022-08-18T04:49:54;101387.75;;;18.08;85.90
71966;BME280;59836;52.132;5.442;2022-08-18T04:52:25;101387.75;;;18.08;85.99
71966;BME280;59836;52.132;5.442;2022-08-18T04:55:11;101390.81;;;18.07;86.35
71966;BME280;59836;52.132;5.442;2022-08-18T04:57:37;101388.38;;;18.05;86.47
71966;BME280;59836;52.132;5.442;2022-08-18T05:00:05;101389.69;;;18.08;86.68
71966;BME280;59836;52.132;5.442;2022-08-18T05:02:32;101382.25;;;18.08;86.59
71966;BME280;59836;52.132;5.442;2022-08-18T05:05:14;101381.13;;;18.09;86.60
71966;BME280;59836;52.132;5.442;2022-08-18T05:07:44;101389.38;;;18.09;86.92
71966;BME280;59836;52.132;5.442;2022-08-18T05:10:12;101393.13;;;18.13;86.58
71966;BME280;59836;52.132;5.442;2022-08-18T05:12:39;101390.59;;;18.17;86.71
71966;BME280;59836;52.132;5.442;2022-08-18T05:15:08;101395.47;;;18.20;86.76
71966;BME280;59836;52.132;5.442;2022-08-18T05:17:36;101394.34;;;18.21;86.84
71966;BME280;59836;52.132;5.442;2022-08-18T05:20:06;101403.09;;;18.23;87.21
71966;BME280;59836;52.132;5.442;2022-08-18T05:22:40;101402.78;;;18.25;86.97
71966;BME280;59836;52.132;5.442;2022-08-18T05:25:09;101402.47;;;18.26;87.17
71966;BME280;59836;52.132;5.442;2022-08-18T05:27:40;101392.50;;;18.31;87.26
71966;BME280;59836;52.132;5.442;2022-08-18T05:30:09;101402.38;;;18.32;87.71
71966;BME280;59836;52.132;5.442;2022-08-18T05:32:44;101395.44;;;18.34;87.62
71966;BME280;59836;52.132;5.442;2022-08-18T05:35:25;101395.66;;;18.38;87.66
71966;BME280;59836;52.132;5.442;2022-08-18T05:40:38;101395.53;;;18.43;88.31
71966;BME280;59836;52.132;5.442;2022-08-18T05:43:06;101392.66;;;18.48;88.28
71966;BME280;59836;52.132;5.442;2022-08-18T05:45:34;101405.16;;;18.54;88.25
71966;BME280;59836;52.132;5.442;2022-08-18T05:48:08;101394.34;;;18.58;88.42
71966;BME280;59836;52.132;5.442;2022-08-18T05:50:38;101397.28;;;18.62;88.80
71966;BME280;59836;52.132;5.442;2022-08-18T05:53:15;101399.41;;;18.65;88.86
71966;BME280;59836;52.132;5.442;2022-08-18T05:56:00;101389.41;;;18.69;88.90
71966;BME280;59836;52.132;5.442;2022-08-18T05:58:52;101387.16;;;18.71;88.90
71966;BME280;59836;52.132;5.442;2022-08-18T06:01:31;101393.16;;;18.73;88.99
71966;BME280;59836;52.132;5.442;2022-08-18T06:04:05;101395.09;;;18.72;89.11
71966;BME280;59836;52.132;5.442;2022-08-18T06:06:36;101395.91;;;18.73;89.07
71966;BME280;59836;52.132;5.442;2022-08-18T06:09:31;101397.53;;;18.74;88.77
71966;BME280;59836;52.132;5.442;2022-08-18T06:12:06;101395.28;;;18.76;88.96
71966;BME280;59836;52.132;5.442;2022-08-18T06:15:44;101394.66;;;18.79;88.57
71966;BME280;59836;52.132;5.442;2022-08-18T06:18:06;101408.91;;;18.81;88.71
71966;BME280;59836;52.132;5.442;2022-08-18T06:35:20;101394.28;;;18.95;89.14
71966;BME280;59836;52.132;5.442;2022-08-18T06:38:16;101402.25;;;18.96;89.17
71966;BME280;59836;52.132;5.442;2022-08-18T06:41:20;101400.50;;;19.00;89.80
71966;BME280;59836;52.132;5.442;2022-08-18T06:54:01;101411.88;;;19.08;89.67
71966;BME280;59836;52.132;5.442;2022-08-18T06:59:22;101425.66;;;19.16;89.55
71966;BME280;59836;52.132;5.442;2022-08-18T07:01:58;101428.78;;;19.24;89.74
71966;BME280;59836;52.132;5.442;2022-08-18T07:04:43;101418.28;;;19.26;90.21
71966;BME280;59836;52.132;5.442;2022-08-18T07:07:41;101431.41;;;19.29;90.09
71966;BME280;59836;52.132;5.442;2022-08-18T07:12:47;101438.19;;;19.31;90.24
71966;BME280;59836;52.132;5.442;2022-08-18T07:15:22;101441.16;;;19.35;89.99
71966;BME280;59836;52.132;5.442;2022-08-18T07:17:50;101438.41;;;19.35;89.56
71966;BME280;59836;52.132;5.442;2022-08-18T07:20:24;101436.78;;;19.34;89.70
71966;BME280;59836;52.132;5.442;2022-08-18T07:22:54;101449.91;;;19.37;89.85
71966;BME280;59836;52.132;5.442;2022-08-18T07:25:31;101445.69;;;19.40;89.72
71966;BME280;59836;52.132;5.442;2022-08-18T07:28:03;101444.75;;;19.44;89.80
71966;BME280;59836;52.132;5.442;2022-08-18T07:30:37;101452.69;;;19.46;89.72
71966;BME280;59836;52.132;5.442;2022-08-18T07:33:20;101452.38;;;19.47;90.17
71966;BME280;59836;52.132;5.442;2022-08-18T07:35:51;101450.75;;;19.46;89.49
71966;BME280;59836;52.132;5.442;2022-08-18T07:38:28;101454.00;;;19.49;89.46
71966;BME280;59836;52.132;5.442;2022-08-18T07:41:16;101467.63;;;19.54;89.53
71966;BME280;59836;52.132;5.442;2022-08-18T07:46:24;101459.88;;;19.56;89.21
71966;BME280;59836;52.132;5.442;2022-08-18T07:48:56;101460.53;;;19.61;89.29
71966;BME280;59836;52.132;5.442;2022-08-18T07:51:45;101461.19;;;19.67;89.04
71966;BME280;59836;52.132;5.442;2022-08-18T07:54:44;101458.31;;;19.72;88.64
71966;BME280;59836;52.132;5.442;2022-08-18T07:57:26;101470.94;;;19.73;88.97
71966;BME280;59836;52.132;5.442;2022-08-18T08:00:28;101466.91;;;19.71;88.91
71966;BME280;59836;52.132;5.442;2022-08-18T08:06:18;101461.56;;;19.74;88.95
71966;BME280;59836;52.132;5.442;2022-08-18T08:12:47;101473.19;;;19.71;88.28
71966;BME280;59836;52.132;5.442;2022-08-18T08:14:57;101468.81;;;19.70;88.36
71966;BME280;59836;52.132;5.442;2022-08-18T08:17:34;101470.94;;;19.73;89.54
71966;BME280;59836;52.132;5.442;2022-08-18T08:20:17;101467.25;;;19.78;89.32
71966;BME280;59836;52.132;5.442;2022-08-18T08:28:23;101459.47;;;20.12;87.90
71966;BME280;59836;52.132;5.442;2022-08-18T08:31:09;101463.19;;;20.16;85.59
71966;BME280;59836;52.132;5.442;2022-08-18T08:34:34;101457.19;;;20.14;86.52
71966;BME280;59836;52.132;5.442;2022-08-18T08:37:18;101454.78;;;20.21;85.74
71966;BME280;59836;52.132;5.442;2022-08-18T08:40:05;101447.50;;;20.25;85.53
71966;BME280;59836;52.132;5.442;2022-08-18T08:45:29;101441.69;;;20.35;85.06
71966;BME280;59836;52.132;5.442;2022-08-18T08:48:02;101450.59;;;20.41;84.02
71966;BME280;59836;52.132;5.442;2022-08-18T08:50:40;101447.88;;;20.50;85.61
71966;BME280;59836;52.132;5.442;2022-08-18T08:53:19;101454.50;;;20.58;83.51
71966;BME280;59836;52.132;5.442;2022-08-18T08:55:50;101450.78;;;20.62;82.75
71966;BME280;59836;52.132;5.442;2022-08-18T08:58:20;101446.25;;;20.67;80.89
71966;BME280;59836;52.132;5.442;2022-08-18T09:00:50;101455.31;;;20.67;80.90
71966;BME280;59836;52.132;5.442;2022-08-18T09:06:01;101453.56;;;20.80;81.47
71966;BME280;59836;52.132;5.442;2022-08-18T09:08:41;101454.38;;;20.89;81.36
71966;BME280;59836;52.132;5.442;2022-08-18T09:17:43;101455.34;;;20.93;83.04
71966;BME280;59836;52.132;5.442;2022-08-18T09:20:39;101456.31;;;20.98;82.98
71966;BME280;59836;52.132;5.442;2022-08-18T09:23:29;101458.91;;;21.12;82.24
71966;BME280;59836;52.132;5.442;2022-08-18T09:35:06;101458.31;;;21.53;79.18
71966;BME280;59836;52.132;5.442;2022-08-18T09:37:56;101457.47;;;21.62;78.66
71966;BME280;59836;52.132;5.442;2022-08-18T09:40:58;101457.31;;;21.67;77.53
71966;BME280;59836;52.132;5.442;2022-08-18T09:44:10;101465.44;;;21.72;78.23
71966;BME280;59836;52.132;5.442;2022-08-18T09:46:52;101464.94;;;21.70;76.72
71966;BME280;59836;52.132;5.442;2022-08-18T09:51:58;101455.66;;;21.75;78.14
71966;BME280;59836;52.132;5.442;2022-08-18T09:54:32;101453.81;;;21.88;76.88
71966;BME280;59836;52.132;5.442;2022-08-18T09:57:22;101460.94;;;21.89;78.00
71966;BME280;59836;52.132;5.442;2022-08-18T09:59:56;101448.16;;;21.84;75.36
71966;BME280;59836;52.132;5.442;2022-08-18T10:11:31;101444.19;;;21.64;77.07
71966;BME280;59836;52.132;5.442;2022-08-18T10:14:48;101443.84;;;21.65;77.28
71966;BME280;59836;52.132;5.442;2022-08-18T10:21:08;101441.25;;;21.69;77.58
71966;BME280;59836;52.132;5.442;2022-08-18T10:23:57;101438.75;;;21.76;77.62
71966;BME280;59836;52.132;5.442;2022-08-18T10:34:45;101441.88;;;22.05;75.16
71966;BME280;59836;52.132;5.442;2022-08-18T10:40:15;101447.09;;;21.97;75.91
71966;BME280;59836;52.132;5.442;2022-08-18T10:42:55;101448.56;;;21.95;76.42
71966;BME280;59836;52.132;5.442;2022-08-18T10:45:29;101444.66;;;21.96;76.98
71966;BME280;59836;52.132;5.442;2022-08-18T10:48:22;101447.78;;;21.94;76.97
71966;BME280;59836;52.132;5.442;2022-08-18T10:53:44;101453.81;;;21.88;77.20
71966;BME280;59836;52.132;5.442;2022-08-18T10:59:35;101450.91;;;21.84;77.37
71966;BME280;59836;52.132;5.442;2022-08-18T11:02:49;101457.72;;;21.87;77.69
71966;BME280;59836;52.132;5.442;2022-08-18T11:05:41;101449.41;;;21.87;75.64
71966;BME280;59836;52.132;5.442;2022-08-18T11:08:13;101445.88;;;21.86;75.36
71966;BME280;59836;52.132;5.442;2022-08-18T11:11:05;101446.81;;;21.90;76.19
71966;BME280;59836;52.132;5.442;2022-08-18T11:14:09;101446.47;;;21.92;75.41
71966;BME280;59836;52.132;5.442;2022-08-18T11:16:56;101441.44;;;21.94;74.63
71966;BME280;59836;52.132;5.442;2022-08-18T11:19:37;101453.44;;;21.98;74.41
71966;BME280;59836;52.132;5.442;2022-08-18T11:22:27;101454.06;;;22.04;75.21
71966;BME280;59836;52.132;5.442;2022-08-18T11:24:58;101446.25;;;22.06;74.26
71966;BME280;59836;52.132;5.442;2022-08-18T11:27:28;101436.81;;;22.07;73.24
71966;BME280;59836;52.132;5.442;2022-08-18T11:30:05;101438.91;;;22.10;74.48
71966;BME280;59836;52.132;5.442;2022-08-18T11:32:34;101439.31;;;22.21;73.72
71966;BME280;59836;52.132;5.442;2022-08-18T11:38:36;101445.69;;;22.42;74.35
71966;BME280;59836;52.132;5.442;2022-08-18T11:41:34;101433.50;;;22.44;74.10
71966;BME280;59836;52.132;5.442;2022-08-18T11:44:20;101434.78;;;22.46;73.73
71966;BME280;59836;52.132;5.442;2022-08-18T11:46:55;101434.94;;;22.50;73.04
71966;BME280;59836;52.132;5.442;2022-08-18T11:50:04;101425.88;;;22.62;73.25
71966;BME280;59836;52.132;5.442;2022-08-18T11:52:49;101422.97;;;22.79;72.52
71966;BME280;59836;52.132;5.442;2022-08-18T11:55:31;101420.31;;;22.83;72.33
71966;BME280;59836;52.132;5.442;2022-08-18T11:58:03;101410.88;;;22.84;72.59
71966;BME280;59836;52.132;5.442;2022-08-18T12:03:26;101410.75;;;22.80;72.21
71966;BME280;59836;52.132;5.442;2022-08-18T12:06:19;101420.22;;;22.79;72.96
71966;BME280;59836;52.132;5.442;2022-08-18T12:09:25;101417.31;;;22.76;72.54
71966;BME280;59836;52.132;5.442;2022-08-18T12:12:23;101416.19;;;22.77;72.18
71966;BME280;59836;52.132;5.442;2022-08-18T12:14:56;101414.22;;;22.77;72.51
71966;BME280;59836;52.132;5.442;2022-08-18T12:17:37;101410.50;;;22.73;70.67
71966;BME280;59836;52.132;5.442;2022-08-18T12:20:04;101405.53;;;22.66;71.60
71966;BME280;59836;52.132;5.442;2022-08-18T12:22:39;101394.00;;;22.64;71.00
71966;BME280;59836;52.132;5.442;2022-08-18T12:25:11;101396.97;;;22.59;71.12
71966;BME280;59836;52.132;5.442;2022-08-18T12:27:48;101406.41;;;22.58;71.54
71966;BME280;59836;52.132;5.442;2022-08-18T12:30:15;101398.13;;;22.58;71.81
71966;BME280;59836;52.132;5.442;2022-08-18T12:32:42;101399.75;;;22.59;72.13
71966;BME280;59836;52.132;5.442;2022-08-18T12:35:36;101406.88;;;22.60;72.23
71966;BME280;59836;52.132;5.442;2022-08-18T12:38:07;101402.97;;;22.61;73.46
71966;BME280;59836;52.132;5.442;2022-08-18T12:40:41;101409.28;;;22.62;71.66
71966;BME280;59836;52.132;5.442;2022-08-18T12:43:14;101402.50;;;22.59;72.32
71966;BME280;59836;52.132;5.442;2022-08-18T12:45:41;101410.13;;;22.62;73.11
71966;BME280;59836;52.132;5.442;2022-08-18T12:48:08;101405.84;;;22.65;72.63
71966;BME280;59836;52.132;5.442;2022-08-18T12:50:36;101405.53;;;22.66;72.27
71966;BME280;59836;52.132;5.442;2022-08-18T12:53:23;101410.25;;;22.66;71.49
71966;BME280;59836;52.132;5.442;2022-08-18T12:56:23;101409.44;;;22.65;71.46
71966;BME280;59836;52.132;5.442;2022-08-18T12:58:50;101407.81;;;22.64;70.65
71966;BME280;59836;52.132;5.442;2022-08-18T13:01:37;101399.53;;;22.64;71.39
71966;BME280;59836;52.132;5.442;2022-08-18T13:04:15;101400.69;;;22.63;70.21
71966;BME280;59836;52.132;5.442;2022-08-18T13:06:52;101399.06;;;22.62;71.08
71966;BME280;59836;52.132;5.442;2022-08-18T13:09:35;101405.53;;;22.66;70.50
71966;BME280;59836;52.132;5.442;2022-08-18T13:12:24;101397.72;;;22.68;70.98
71966;BME280;59836;52.132;5.442;2022-08-18T13:15:02;101402.41;;;22.68;70.67
71966;BME280;59836;52.132;5.442;2022-08-18T13:17:38;101407.81;;;22.64;70.96
71966;BME280;59836;52.132;5.442;2022-08-18T13:20:20;101411.75;;;22.63;71.79
71966;BME280;59836;52.132;5.442;2022-08-18T13:23:43;101417.28;;;22.63;71.63
71966;BME280;59836;52.132;5.442;2022-08-18T13:26:34;101414.81;;;22.62;72.13
71966;BME280;59836;52.132;5.442;2022-08-18T13:29:17;101419.56;;;22.61;72.61
71966;BME280;59836;52.132;5.442;2022-08-18T13:31:45;101428.19;;;22.60;71.39
71966;BME280;59836;52.132;5.442;2022-08-18T13:34:33;101423.78;;;22.59;71.38
71966;BME280;59836;52.132;5.442;2022-08-18T13:37:01;101432.91;;;22.59;71.35
71966;BME280;59836;52.132;5.442;2022-08-18T13:39:42;101431.97;;;22.55;71.64
71966;BME280;59836;52.132;5.442;2022-08-18T13:42:09;101436.56;;;22.51;70.34
71966;BME280;59836;52.132;5.442;2022-08-18T13:44:58;101441.47;;;22.45;70.58
71966;BME280;59836;52.132;5.442;2022-08-18T13:48:00;101440.94;;;22.43;71.29
71966;BME280;59836;52.132;5.442;2022-08-18T13:50:40;101452.84;;;22.44;71.90
71966;BME280;59836;52.132;5.442;2022-08-18T13:53:16;101444.06;;;22.41;71.38
71966;BME280;59836;52.132;5.442;2022-08-18T13:55:47;101447.31;;;22.44;71.34
71966;BME280;59836;52.132;5.442;2022-08-18T13:58:30;101440.66;;;22.45;72.01
71966;BME280;59836;52.132;5.442;2022-08-18T14:01:00;101446.31;;;22.48;71.83
71966;BME280;59836;52.132;5.442;2022-08-18T14:03:51;101442.56;;;22.53;70.66
71966;BME280;59836;52.132;5.442;2022-08-18T14:06:18;101453.25;;;22.54;70.41
71966;BME280;59836;52.132;5.442;2022-08-18T14:08:53;101443.81;;;22.55;70.97
71966;BME280;59836;52.132;5.442;2022-08-18T14:11:37;101440.06;;;22.60;71.41
71966;BME280;59836;52.132;5.442;2022-08-18T14:14:07;101439.38;;;22.63;71.07
71966;BME280;59836;52.132;5.442;2022-08-18T14:16:34;101434.81;;;22.67;70.54
71966;BME280;59836;52.132;5.442;2022-08-18T14:19:07;101428.91;;;22.69;70.35
71966;BME280;59836;52.132;5.442;2022-08-18T14:21:53;101428.59;;;22.70;71.40
71966;BME280;59836;52.132;5.442;2022-08-18T14:24:40;101432.97;;;22.72;70.47
71966;BME280;59836;52.132;5.442;2022-08-18T14:27:57;101431.16;;;22.76;70.94
71966;BME280;59836;52.132;5.442;2022-08-18T14:30:29;101436.31;;;22.77;71.93
71966;BME280;59836;52.132;5.442;2022-08-18T14:32:57;101431.63;;;22.78;71.67
71966;BME280;59836;52.132;5.442;2022-08-18T14:35:24;101444.97;;;22.76;71.86
71966;BME280;59836;52.132;5.442;2022-08-18T14:38:47;101430.69;;;22.74;71.53
71966;BME280;59836;52.132;5.442;2022-08-18T14:41:17;101423.19;;;22.74;70.80
71966;BME280;59836;52.132;5.442;2022-08-18T14:43:50;101411.31;;;22.74;71.57
71966;BME280;59836;52.132;5.442;2022-08-18T14:47:14;101405.13;;;22.77;72.94
71966;BME280;59836;52.132;5.442;2022-08-18T14:49:49;101398.88;;;22.80;71.78
71966;BME280;59836;52.132;5.442;2022-08-18T14:52:16;101398.66;;;22.85;71.43
71966;BME280;59836;52.132;5.442;2022-08-18T14:54:43;101402.38;;;22.89;72.12
71966;BME280;59836;52.132;5.442;2022-08-18T14:57:16;101403.19;;;22.90;70.73
71966;BME280;59836;52.132;5.442;2022-08-18T14:59:43;101401.69;;;22.92;71.70
71966;BME280;59836;52.132;5.442;2022-08-18T15:02:12;101399.53;;;22.98;70.74
71966;BME280;59836;52.132;5.442;2022-08-18T15:04:40;101398.50;;;23.03;70.49
71966;BME280;59836;52.132;5.442;2022-08-18T15:07:24;101403.56;;;23.00;71.06
71966;BME280;59836;52.132;5.442;2022-08-18T15:09:59;101405.63;;;23.04;71.24
71966;BME280;59836;52.132;5.442;2022-08-18T15:13:01;101412.09;;;23.08;71.28
71966;BME280;59836;52.132;5.442;2022-08-18T15:15:42;101410.75;;;23.14;71.90
71966;BME280;59836;52.132;5.442;2022-08-18T15:18:24;101407.75;;;23.19;70.99
71966;BME280;59836;52.132;5.442;2022-08-18T15:20:58;101402.69;;;23.21;70.21
71966;BME280;59836;52.132;5.442;2022-08-18T15:24:03;101392.31;;;23.18;70.27
71966;BME280;59836;52.132;5.442;2022-08-18T15:26:51;101390.69;;;23.17;68.94
71966;BME280;59836;52.132;5.442;2022-08-18T15:29:24;101389.28;;;23.11;68.35
71966;BME280;59836;52.132;5.442;2022-08-18T15:31:57;101384.13;;;23.09;67.97
71966;BME280;59836;52.132;5.442;2022-08-18T15:34:40;101384.59;;;23.11;68.63
71966;BME280;59836;52.132;5.442;2022-08-18T15:37:35;101382.13;;;23.10;69.29
71966;BME280;59836;52.132;5.442;2022-08-18T15:40:21;101383.44;;;23.12;69.12